sensor_id;sensor_type;location;lat;lon;timestamp;P1;durP1;ratioP1;P2;durP2;ratioP2
61531;SDS011;47397;48.194;11.632;2022-08-25T00:00:53;8.57;;;6.13;;
61531;SDS011;47397;48.194;11.632;2022-08-25T00:01:54;10.23;;;6.18;;
61531;SDS011;47397;48.194;11.632;2022-08-25T00:02:56;6.78;;;5.35;;
61531;SDS011;47397;48.194;11.632;2022-08-25T00:03:57;9.32;;;5.90;;
61531;SDS011;47397;48.194;11.632;2022-08-25T00:04:58;7.93;;;5.60;;
61531;SDS011;47397;48.194;11.632;2022-08-25T00:05:59;6.50;;;5.20;;
61531;SDS011;47397;48.194;11.632;2022-08-25T00:06:59;7.45;;;5.55;;
61531;SDS011;47397;48.194;11.632;2022-08-25T00:08:02;10.00;;;5.78;;
61531;SDS011;47397;48.194;11.632;2022-08-25T00:09:03;6.70;;;5.60;;
61531;SDS011;47397;48.194;11.632;2022-08-25T00:10:05;8.02;;;5.60;;
61531;SDS011;47397;48.194;11.632;2022-08-25T00:11:07;7.53;;;5.57;;
61531;SDS011;47397;48.194;11.632;2022-08-25T00:12:09;6.65;;;5.30;;
61531;SDS011;47397;48.194;11.632;2022-08-25T00:13:10;9.23;;;5.15;;
61531;SDS011;47397;48.194;11.632;2022-08-25T00:14:11;8.35;;;5.22;;
61531;SDS011;47397;48.194;11.632;2022-08-25T00:15:13;7.30;;;5.25;;
61531;SDS011;47397;48.194;11.632;2022-08-25T00:16:14;8.38;;;5.18;;
61531;SDS011;47397;48.194;11.632;2022-08-25T00:17:17;8.45;;;5.35;;
61531;SDS011;47397;48.194;11.632;2022-08-25T00:18:17;7.60;;;4.90;;
61531;SDS011;47397;48.194;11.632;2022-08-25T00:19:18;8.57;;;5.57;;
61531;SDS011;47397;48.194;11.632;2022-08-25T00:20:20;9.18;;;5.25;;
61531;SDS011;47397;48.194;11.632;2022-08-25T00:21:21;9.98;;;5.88;;
61531;SDS011;47397;48.194;11.632;2022-08-25T00:22:22;9.75;;;5.63;;
61531;SDS011;47397;48.194;11.632;2022-08-25T00:23:24;8.45;;;6.35;;
61531;SDS011;47397;48.194;11.632;2022-08-25T00:24:24;10.02;;;6.13;;
61531;SDS011;47397;48.194;11.632;2022-08-25T00:25:24;8.68;;;5.93;;
61531;SDS011;47397;48.194;11.632;2022-08-25T00:26:25;8.48;;;6.20;;
61531;SDS011;47397;48.194;11.632;2022-08-25T00:27:25;9.65;;;6.43;;
61531;SDS011;47397;48.194;11.632;2022-08-25T00:28:26;7.82;;;6.13;;
61531;SDS011;47397;48.194;11.632;2022-08-25T00:29:26;9.07;;;6.50;;
61531;SDS011;47397;48.194;11.632;2022-08-25T00:30:28;11.07;;;7.13;;
61531;SDS011;47397;48.194;11.632;2022-08-25T00:31:28;10.02;;;7.20;;
61531;SDS011;47397;48.194;11.632;2022-08-25T00:32:29;9.40;;;6.70;;
61531;SDS011;47397;48.194;11.632;2022-08-25T00:33:29;11.48;;;6.80;;
61531;SDS011;47397;48.194;11.632;2022-08-25T00:34:31;9.57;;;6.82;;
61531;SDS011;47397;48.194;11.632;2022-08-25T00:35:33;9.55;;;6.40;;
61531;SDS011;47397;48.194;11.632;2022-08-25T00:36:34;9.23;;;7.05;;
61531;SDS011;47397;48.194;11.632;2022-08-25T00:37:34;9.05;;;6.35;;
61531;SDS011;47397;48.194;11.632;2022-08-25T00:38:36;9.70;;;6.05;;
61531;SDS011;47397;48.194;11.632;2022-08-25T00:39:37;9.50;;;6.20;;
61531;SDS011;47397;48.194;11.632;2022-08-25T00:40:38;9.02;;;6.25;;
61531;SDS011;47397;48.194;11.632;2022-08-25T00:41:41;8.50;;;6.00;;
61531;SDS011;47397;48.194;11.632;2022-08-25T00:42:42;10.32;;;6.57;;
61531;SDS011;47397;48.194;11.632;2022-08-25T00:43:44;11.50;;;6.20;;
61531;SDS011;47397;48.194;11.632;2022-08-25T00:44:46;14.10;;;6.93;;
61531;SDS011;47397;48.194;11.632;2022-08-25T00:45:47;10.50;;;6.30;;
61531;SDS011;47397;48.194;11.632;2022-08-25T00:46:48;9.05;;;6.70;;
61531;SDS011;47397;48.194;11.632;2022-08-25T00:47:50;9.75;;;6.30;;
61531;SDS011;47397;48.194;11.632;2022-08-25T00:48:54;11.07;;;6.35;;
61531;SDS011;47397;48.194;11.632;2022-08-25T00:49:58;8.55;;;6.25;;
61531;SDS011;47397;48.194;11.632;2022-08-25T00:51:00;9.63;;;6.05;;
61531;SDS011;47397;48.194;11.632;2022-08-25T00:52:03;11.05;;;6.05;;
61531;SDS011;47397;48.194;11.632;2022-08-25T00:53:06;9.95;;;5.75;;
61531;SDS011;47397;48.194;11.632;2022-08-25T00:54:09;9.23;;;6.40;;
61531;SDS011;47397;48.194;11.632;2022-08-25T00:55:14;8.93;;;6.30;;
61531;SDS011;47397;48.194;11.632;2022-08-25T00:56:19;9.75;;;6.18;;
61531;SDS011;47397;48.194;11.632;2022-08-25T00:57:22;9.77;;;6.43;;
61531;SDS011;47397;48.194;11.632;2022-08-25T00:58:25;9.10;;;5.85;;
61531;SDS011;47397;48.194;11.632;2022-08-25T00:59:27;9.43;;;6.40;;
61531;SDS011;47397;48.194;11.632;2022-08-25T01:00:29;9.93;;;6.10;;
61531;SDS011;47397;48.194;11.632;2022-08-25T01:01:31;10.35;;;6.78;;
61531;SDS011;47397;48.194;11.632;2022-08-25T01:02:32;10.60;;;7.03;;
61531;SDS011;47397;48.194;11.632;2022-08-25T01:03:32;9.35;;;6.57;;
61531;SDS011;47397;48.194;11.632;2022-08-25T01:04:33;9.40;;;6.47;;
61531;SDS011;47397;48.194;11.632;2022-08-25T01:05:34;10.52;;;7.20;;
61531;SDS011;47397;48.194;11.632;2022-08-25T01:06:36;12.98;;;7.90;;
61531;SDS011;47397;48.194;11.632;2022-08-25T01:07:40;10.27;;;7.13;;
61531;SDS011;47397;48.194;11.632;2022-08-25T01:08:42;11.02;;;6.68;;
61531;SDS011;47397;48.194;11.632;2022-08-25T01:09:44;8.68;;;6.47;;
61531;SDS011;47397;48.194;11.632;2022-08-25T01:10:46;10.95;;;6.85;;
61531;SDS011;47397;48.194;11.632;2022-08-25T01:11:48;9.65;;;6.72;;
61531;SDS011;47397;48.194;11.632;2022-08-25T01:12:49;8.38;;;6.22;;
61531;SDS011;47397;48.194;11.632;2022-08-25T01:13:53;10.52;;;6.65;;
61531;SDS011;47397;48.194;11.632;2022-08-25T01:14:55;8.63;;;6.78;;
61531;SDS011;47397;48.194;11.632;2022-08-25T01:15:57;10.15;;;6.65;;
61531;SDS011;47397;48.194;11.632;2022-08-25T01:16:58;9.30;;;6.32;;
61531;SDS011;47397;48.194;11.632;2022-08-25T01:17:59;11.52;;;6.97;;
61531;SDS011;47397;48.194;11.632;2022-08-25T01:19:00;9.05;;;6.28;;
61531;SDS011;47397;48.194;11.632;2022-08-25T01:20:00;11.85;;;6.95;;
61531;SDS011;47397;48.194;11.632;2022-08-25T01:21:03;10.90;;;6.57;;
61531;SDS011;47397;48.194;11.632;2022-08-25T01:22:03;12.60;;;6.75;;
61531;SDS011;47397;48.194;11.632;2022-08-25T01:23:03;11.48;;;6.75;;
61531;SDS011;47397;48.194;11.632;2022-08-25T01:24:04;9.57;;;6.65;;
61531;SDS011;47397;48.194;11.632;2022-08-25T01:25:06;9.63;;;6.93;;
61531;SDS011;47397;48.194;11.632;2022-08-25T01:26:20;11.40;;;7.07;;
61531;SDS011;47397;48.194;11.632;2022-08-25T01:27:22;9.85;;;7.53;;
61531;SDS011;47397;48.194;11.632;2022-08-25T01:28:22;11.05;;;7.40;;
61531;SDS011;47397;48.194;11.632;2022-08-25T01:29:23;13.85;;;8.10;;
61531;SDS011;47397;48.194;11.632;2022-08-25T01:30:24;14.70;;;7.25;;
61531;SDS011;47397;48.194;11.632;2022-08-25T01:31:25;10.15;;;7.38;;
61531;SDS011;47397;48.194;11.632;2022-08-25T01:32:26;11.68;;;7.40;;
61531;SDS011;47397;48.194;11.632;2022-08-25T01:33:26;9.55;;;7.25;;
61531;SDS011;47397;48.194;11.632;2022-08-25T01:34:28;10.73;;;7.10;;
61531;SDS011;47397;48.194;11.632;2022-08-25T01:35:29;11.40;;;7.85;;
61531;SDS011;47397;48.194;11.632;2022-08-25T01:36:32;11.20;;;7.65;;
61531;SDS011;47397;48.194;11.632;2022-08-25T01:37:33;10.43;;;7.15;;
61531;SDS011;47397;48.194;11.632;2022-08-25T01:38:34;11.00;;;7.75;;
61531;SDS011;47397;48.194;11.632;2022-08-25T01:39:35;11.18;;;7.53;;
61531;SDS011;47397;48.194;11.632;2022-08-25T01:40:36;9.90;;;7.13;;
61531;SDS011;47397;48.194;11.632;2022-08-25T01:41:40;12.50;;;7.80;;
61531;SDS011;47397;48.194;11.632;2022-08-25T01:42:52;12.40;;;8.05;;
61531;SDS011;47397;48.194;11.632;2022-08-25T01:43:57;12.38;;;8.00;;
61531;SDS011;47397;48.194;11.632;2022-08-25T01:44:57;12.02;;;8.43;;
61531;SDS011;47397;48.194;11.632;2022-08-25T01:45:58;12.00;;;8.27;;
61531;SDS011;47397;48.194;11.632;2022-08-25T01:46:58;12.63;;;8.18;;
61531;SDS011;47397;48.194;11.632;2022-08-25T01:47:59;13.32;;;8.57;;
61531;SDS011;47397;48.194;11.632;2022-08-25T01:48:59;10.43;;;7.32;;
61531;SDS011;47397;48.194;11.632;2022-08-25T01:50:01;13.93;;;7.82;;
61531;SDS011;47397;48.194;11.632;2022-08-25T01:51:01;11.68;;;8.25;;
61531;SDS011;47397;48.194;11.632;2022-08-25T01:52:06;17.10;;;8.65;;
61531;SDS011;47397;48.194;11.632;2022-08-25T01:53:11;12.15;;;8.00;;
61531;SDS011;47397;48.194;11.632;2022-08-25T01:54:16;11.82;;;8.05;;
61531;SDS011;47397;48.194;11.632;2022-08-25T01:55:17;16.42;;;8.07;;
61531;SDS011;47397;48.194;11.632;2022-08-25T01:56:17;12.43;;;7.70;;
61531;SDS011;47397;48.194;11.632;2022-08-25T01:57:18;11.98;;;8.13;;
61531;SDS011;47397;48.194;11.632;2022-08-25T01:58:19;12.30;;;7.47;;
61531;SDS011;47397;48.194;11.632;2022-08-25T01:59:20;13.80;;;8.10;;
61531;SDS011;47397;48.194;11.632;2022-08-25T02:00:22;13.25;;;8.25;;
61531;SDS011;47397;48.194;11.632;2022-08-25T02:01:23;11.68;;;7.72;;
61531;SDS011;47397;48.194;11.632;2022-08-25T02:02:23;13.80;;;7.82;;
61531;SDS011;47397;48.194;11.632;2022-08-25T02:03:24;12.13;;;8.00;;
61531;SDS011;47397;48.194;11.632;2022-08-25T02:04:25;15.60;;;8.52;;
61531;SDS011;47397;48.194;11.632;2022-08-25T02:05:26;13.70;;;8.27;;
61531;SDS011;47397;48.194;11.632;2022-08-25T02:06:27;12.82;;;8.48;;
61531;SDS011;47397;48.194;11.632;2022-08-25T02:07:32;12.70;;;7.97;;
61531;SDS011;47397;48.194;11.632;2022-08-25T02:08:32;12.50;;;7.97;;
61531;SDS011;47397;48.194;11.632;2022-08-25T02:09:34;13.05;;;7.72;;
61531;SDS011;47397;48.194;11.632;2022-08-25T02:10:35;12.00;;;8.07;;
61531;SDS011;47397;48.194;11.632;2022-08-25T02:11:37;13.73;;;8.60;;
61531;SDS011;47397;48.194;11.632;2022-08-25T02:12:38;14.40;;;8.18;;
61531;SDS011;47397;48.194;11.632;2022-08-25T02:13:39;12.95;;;8.27;;
61531;SDS011;47397;48.194;11.632;2022-08-25T02:14:41;13.15;;;8.43;;
61531;SDS011;47397;48.194;11.632;2022-08-25T02:15:42;11.55;;;8.27;;
61531;SDS011;47397;48.194;11.632;2022-08-25T02:16:45;11.50;;;7.65;;
61531;SDS011;47397;48.194;11.632;2022-08-25T02:17:47;11.65;;;8.02;;
61531;SDS011;47397;48.194;11.632;2022-08-25T02:18:47;13.38;;;8.00;;
61531;SDS011;47397;48.194;11.632;2022-08-25T02:19:48;11.10;;;7.70;;
61531;SDS011;47397;48.194;11.632;2022-08-25T02:20:48;12.90;;;8.07;;
61531;SDS011;47397;48.194;11.632;2022-08-25T02:21:49;12.57;;;8.40;;
61531;SDS011;47397;48.194;11.632;2022-08-25T02:22:51;10.88;;;7.80;;
61531;SDS011;47397;48.194;11.632;2022-08-25T02:23:52;11.75;;;8.13;;
61531;SDS011;47397;48.194;11.632;2022-08-25T02:24:53;13.70;;;8.88;;
61531;SDS011;47397;48.194;11.632;2022-08-25T02:25:54;11.75;;;8.68;;
61531;SDS011;47397;48.194;11.632;2022-08-25T02:26:54;13.18;;;8.60;;
61531;SDS011;47397;48.194;11.632;2022-08-25T02:27:54;12.98;;;9.23;;
61531;SDS011;47397;48.194;11.632;2022-08-25T02:28:55;15.23;;;9.63;;
61531;SDS011;47397;48.194;11.632;2022-08-25T02:29:56;14.38;;;9.07;;
61531;SDS011;47397;48.194;11.632;2022-08-25T02:30:56;14.98;;;9.05;;
61531;SDS011;47397;48.194;11.632;2022-08-25T02:31:56;14.40;;;9.60;;
61531;SDS011;47397;48.194;11.632;2022-08-25T02:32:57;15.68;;;9.15;;
61531;SDS011;47397;48.194;11.632;2022-08-25T02:33:57;11.32;;;8.57;;
61531;SDS011;47397;48.194;11.632;2022-08-25T02:34:58;12.57;;;8.52;;
61531;SDS011;47397;48.194;11.632;2022-08-25T02:35:58;12.65;;;8.50;;
61531;SDS011;47397;48.194;11.632;2022-08-25T02:37:00;13.70;;;8.80;;
61531;SDS011;47397;48.194;11.632;2022-08-25T02:38:02;13.20;;;8.77;;
61531;SDS011;47397;48.194;11.632;2022-08-25T02:39:03;13.65;;;8.13;;
61531;SDS011;47397;48.194;11.632;2022-08-25T02:40:05;11.90;;;7.90;;
61531;SDS011;47397;48.194;11.632;2022-08-25T02:41:08;13.07;;;9.27;;
61531;SDS011;47397;48.194;11.632;2022-08-25T02:42:10;17.60;;;10.00;;
61531;SDS011;47397;48.194;11.632;2022-08-25T02:43:11;13.77;;;8.90;;
61531;SDS011;47397;48.194;11.632;2022-08-25T02:44:11;12.43;;;8.52;;
61531;SDS011;47397;48.194;11.632;2022-08-25T02:45:12;14.20;;;8.90;;
61531;SDS011;47397;48.194;11.632;2022-08-25T02:46:13;14.63;;;10.05;;
61531;SDS011;47397;48.194;11.632;2022-08-25T02:47:15;16.50;;;9.80;;
61531;SDS011;47397;48.194;11.632;2022-08-25T02:48:15;14.60;;;9.05;;
61531;SDS011;47397;48.194;11.632;2022-08-25T02:49:16;14.57;;;9.30;;
61531;SDS011;47397;48.194;11.632;2022-08-25T02:50:16;14.43;;;10.07;;
61531;SDS011;47397;48.194;11.632;2022-08-25T02:51:17;15.27;;;9.15;;
61531;SDS011;47397;48.194;11.632;2022-08-25T02:52:18;14.40;;;9.32;;
61531;SDS011;47397;48.194;11.632;2022-08-25T02:53:20;14.10;;;9.23;;
61531;SDS011;47397;48.194;11.632;2022-08-25T02:54:20;14.90;;;9.05;;
61531;SDS011;47397;48.194;11.632;2022-08-25T02:55:21;13.13;;;8.63;;
61531;SDS011;47397;48.194;11.632;2022-08-25T02:56:22;12.98;;;9.20;;
61531;SDS011;47397;48.194;11.632;2022-08-25T02:57:22;14.43;;;9.43;;
61531;SDS011;47397;48.194;11.632;2022-08-25T02:58:23;16.45;;;10.30;;
61531;SDS011;47397;48.194;11.632;2022-08-25T02:59:23;15.93;;;9.65;;
61531;SDS011;47397;48.194;11.632;2022-08-25T03:00:24;17.77;;;9.55;;
61531;SDS011;47397;48.194;11.632;2022-08-25T03:01:25;14.15;;;9.52;;
61531;SDS011;47397;48.194;11.632;2022-08-25T03:02:25;14.02;;;9.50;;
61531;SDS011;47397;48.194;11.632;2022-08-25T03:03:26;16.92;;;9.80;;
61531;SDS011;47397;48.194;11.632;2022-08-25T03:04:26;12.23;;;8.95;;
61531;SDS011;47397;48.194;11.632;2022-08-25T03:05:27;16.27;;;9.75;;
61531;SDS011;47397;48.194;11.632;2022-08-25T03:06:27;15.75;;;10.32;;
61531;SDS011;47397;48.194;11.632;2022-08-25T03:07:27;15.40;;;10.02;;
61531;SDS011;47397;48.194;11.632;2022-08-25T03:08:29;15.65;;;9.88;;
61531;SDS011;47397;48.194;11.632;2022-08-25T03:09:30;15.10;;;9.95;;
61531;SDS011;47397;48.194;11.632;2022-08-25T03:10:30;17.55;;;9.93;;
61531;SDS011;47397;48.194;11.632;2022-08-25T03:11:31;16.05;;;10.52;;
61531;SDS011;47397;48.194;11.632;2022-08-25T03:12:31;17.92;;;9.68;;
61531;SDS011;47397;48.194;11.632;2022-08-25T03:13:32;15.23;;;10.30;;
61531;SDS011;47397;48.194;11.632;2022-08-25T03:14:33;14.68;;;10.00;;
61531;SDS011;47397;48.194;11.632;2022-08-25T03:15:33;17.38;;;10.55;;
61531;SDS011;47397;48.194;11.632;2022-08-25T03:16:33;15.40;;;10.05;;
61531;SDS011;47397;48.194;11.632;2022-08-25T03:17:34;14.95;;;10.57;;
61531;SDS011;47397;48.194;11.632;2022-08-25T03:18:35;15.73;;;10.20;;
61531;SDS011;47397;48.194;11.632;2022-08-25T03:19:36;15.80;;;10.10;;
61531;SDS011;47397;48.194;11.632;2022-08-25T03:20:36;15.73;;;9.63;;
61531;SDS011;47397;48.194;11.632;2022-08-25T03:21:37;17.95;;;10.88;;
61531;SDS011;47397;48.194;11.632;2022-08-25T03:22:38;14.15;;;9.77;;
61531;SDS011;47397;48.194;11.632;2022-08-25T03:23:40;15.32;;;10.80;;
61531;SDS011;47397;48.194;11.632;2022-08-25T03:24:41;18.35;;;11.25;;
61531;SDS011;47397;48.194;11.632;2022-08-25T03:25:42;15.90;;;9.68;;
61531;SDS011;47397;48.194;11.632;2022-08-25T03:26:43;13.43;;;10.13;;
61531;SDS011;47397;48.194;11.632;2022-08-25T03:27:43;16.60;;;10.63;;
61531;SDS011;47397;48.194;11.632;2022-08-25T03:28:43;17.48;;;10.68;;
61531;SDS011;47397;48.194;11.632;2022-08-25T03:29:44;17.60;;;10.85;;
61531;SDS011;47397;48.194;11.632;2022-08-25T03:30:44;15.65;;;10.02;;
61531;SDS011;47397;48.194;11.632;2022-08-25T03:31:45;14.98;;;10.23;;
61531;SDS011;47397;48.194;11.632;2022-08-25T03:32:45;15.85;;;10.55;;
61531;SDS011;47397;48.194;11.632;2022-08-25T03:33:46;14.60;;;10.25;;
61531;SDS011;47397;48.194;11.632;2022-08-25T03:34:46;17.77;;;11.10;;
61531;SDS011;47397;48.194;11.632;2022-08-25T03:35:47;17.17;;;10.02;;
61531;SDS011;47397;48.194;11.632;2022-08-25T03:36:48;14.95;;;10.18;;
61531;SDS011;47397;48.194;11.632;2022-08-25T03:37:53;17.05;;;9.98;;
61531;SDS011;47397;48.194;11.632;2022-08-25T03:38:56;14.45;;;9.73;;
61531;SDS011;47397;48.194;11.632;2022-08-25T03:39:56;16.50;;;9.98;;
61531;SDS011;47397;48.194;11.632;2022-08-25T03:40:57;20.58;;;10.48;;
61531;SDS011;47397;48.194;11.632;2022-08-25T03:41:57;16.33;;;10.23;;
61531;SDS011;47397;48.194;11.632;2022-08-25T03:42:57;17.27;;;10.32;;
61531;SDS011;47397;48.194;11.632;2022-08-25T03:43:58;14.35;;;9.73;;
61531;SDS011;47397;48.194;11.632;2022-08-25T03:45:00;16.00;;;9.48;;
61531;SDS011;47397;48.194;11.632;2022-08-25T03:46:01;14.77;;;9.07;;
61531;SDS011;47397;48.194;11.632;2022-08-25T03:47:01;13.68;;;9.48;;
61531;SDS011;47397;48.194;11.632;2022-08-25T03:48:02;14.25;;;9.82;;
61531;SDS011;47397;48.194;11.632;2022-08-25T03:49:03;14.90;;;9.50;;
61531;SDS011;47397;48.194;11.632;2022-08-25T03:50:05;15.68;;;9.85;;
61531;SDS011;47397;48.194;11.632;2022-08-25T03:51:08;15.05;;;10.02;;
61531;SDS011;47397;48.194;11.632;2022-08-25T03:52:08;13.20;;;9.23;;
61531;SDS011;47397;48.194;11.632;2022-08-25T03:53:08;12.07;;;8.82;;
61531;SDS011;47397;48.194;11.632;2022-08-25T03:54:10;18.10;;;9.77;;
61531;SDS011;47397;48.194;11.632;2022-08-25T03:55:12;15.02;;;9.43;;
61531;SDS011;47397;48.194;11.632;2022-08-25T03:56:12;12.93;;;8.60;;
61531;SDS011;47397;48.194;11.632;2022-08-25T03:57:13;14.90;;;9.45;;
61531;SDS011;47397;48.194;11.632;2022-08-25T03:58:13;15.00;;;9.75;;
61531;SDS011;47397;48.194;11.632;2022-08-25T03:59:14;18.70;;;9.75;;
61531;SDS011;47397;48.194;11.632;2022-08-25T04:00:15;15.90;;;9.90;;
61531;SDS011;47397;48.194;11.632;2022-08-25T04:01:16;16.00;;;10.60;;
61531;SDS011;47397;48.194;11.632;2022-08-25T04:02:16;15.98;;;10.52;;
61531;SDS011;47397;48.194;11.632;2022-08-25T04:03:17;18.30;;;10.95;;
61531;SDS011;47397;48.194;11.632;2022-08-25T04:04:17;18.88;;;10.70;;
61531;SDS011;47397;48.194;11.632;2022-08-25T04:05:18;16.83;;;10.30;;
61531;SDS011;47397;48.194;11.632;2022-08-25T04:06:18;16.30;;;10.10;;
61531;SDS011;47397;48.194;11.632;2022-08-25T04:07:19;17.08;;;10.77;;
61531;SDS011;47397;48.194;11.632;2022-08-25T04:08:20;19.13;;;11.25;;
61531;SDS011;47397;48.194;11.632;2022-08-25T04:09:21;16.42;;;10.45;;
61531;SDS011;47397;48.194;11.632;2022-08-25T04:10:22;17.20;;;10.77;;
61531;SDS011;47397;48.194;11.632;2022-08-25T04:11:23;15.68;;;9.95;;
61531;SDS011;47397;48.194;11.632;2022-08-25T04:12:24;15.23;;;9.82;;
61531;SDS011;47397;48.194;11.632;2022-08-25T04:13:24;14.35;;;9.85;;
61531;SDS011;47397;48.194;11.632;2022-08-25T04:14:24;15.75;;;9.95;;
61531;SDS011;47397;48.194;11.632;2022-08-25T04:15:25;18.85;;;10.60;;
61531;SDS011;47397;48.194;11.632;2022-08-25T04:16:26;15.30;;;9.90;;
61531;SDS011;47397;48.194;11.632;2022-08-25T04:17:28;16.10;;;9.55;;
61531;SDS011;47397;48.194;11.632;2022-08-25T04:18:29;15.52;;;9.88;;
61531;SDS011;47397;48.194;11.632;2022-08-25T04:19:29;15.20;;;9.73;;
61531;SDS011;47397;48.194;11.632;2022-08-25T04:20:30;16.75;;;10.20;;
61531;SDS011;47397;48.194;11.632;2022-08-25T04:21:30;18.05;;;10.32;;
61531;SDS011;47397;48.194;11.632;2022-08-25T04:22:31;15.52;;;9.70;;
61531;SDS011;47397;48.194;11.632;2022-08-25T04:23:31;16.80;;;11.10;;
61531;SDS011;47397;48.194;11.632;2022-08-25T04:24:33;16.42;;;10.32;;
61531;SDS011;47397;48.194;11.632;2022-08-25T04:25:33;19.27;;;11.38;;
61531;SDS011;47397;48.194;11.632;2022-08-25T04:26:35;17.48;;;10.13;;
61531;SDS011;47397;48.194;11.632;2022-08-25T04:27:37;16.90;;;10.88;;
61531;SDS011;47397;48.194;11.632;2022-08-25T04:28:38;14.82;;;10.52;;
61531;SDS011;47397;48.194;11.632;2022-08-25T04:29:38;18.55;;;11.18;;
61531;SDS011;47397;48.194;11.632;2022-08-25T04:30:40;15.90;;;10.43;;
61531;SDS011;47397;48.194;11.632;2022-08-25T04:31:43;15.90;;;10.30;;
61531;SDS011;47397;48.194;11.632;2022-08-25T04:32:44;17.73;;;10.95;;
61531;SDS011;47397;48.194;11.632;2022-08-25T04:33:45;16.25;;;10.35;;
61531;SDS011;47397;48.194;11.632;2022-08-25T04:34:45;16.90;;;9.85;;
61531;SDS011;47397;48.194;11.632;2022-08-25T04:35:46;17.63;;;10.57;;
61531;SDS011;47397;48.194;11.632;2022-08-25T04:36:47;14.05;;;9.85;;
61531;SDS011;47397;48.194;11.632;2022-08-25T04:37:48;19.95;;;10.65;;
61531;SDS011;47397;48.194;11.632;2022-08-25T04:38:48;17.23;;;10.68;;
61531;SDS011;47397;48.194;11.632;2022-08-25T04:39:50;16.90;;;9.80;;
61531;SDS011;47397;48.194;11.632;2022-08-25T04:40:54;16.98;;;11.15;;
61531;SDS011;47397;48.194;11.632;2022-08-25T04:41:55;16.25;;;10.02;;
61531;SDS011;47397;48.194;11.632;2022-08-25T04:42:56;14.90;;;10.27;;
61531;SDS011;47397;48.194;11.632;2022-08-25T04:43:56;16.23;;;10.10;;
61531;SDS011;47397;48.194;11.632;2022-08-25T04:44:58;15.23;;;10.55;;
61531;SDS011;47397;48.194;11.632;2022-08-25T04:45:59;14.48;;;10.02;;
61531;SDS011;47397;48.194;11.632;2022-08-25T04:47:04;16.55;;;9.60;;
61531;SDS011;47397;48.194;11.632;2022-08-25T04:48:04;16.17;;;10.60;;
61531;SDS011;47397;48.194;11.632;2022-08-25T04:49:05;17.00;;;9.80;;
61531;SDS011;47397;48.194;11.632;2022-08-25T04:50:06;15.93;;;9.93;;
61531;SDS011;47397;48.194;11.632;2022-08-25T04:51:08;13.82;;;9.82;;
61531;SDS011;47397;48.194;11.632;2022-08-25T04:52:10;17.95;;;10.80;;
61531;SDS011;47397;48.194;11.632;2022-08-25T04:53:10;19.50;;;10.85;;
61531;SDS011;47397;48.194;11.632;2022-08-25T04:54:12;15.65;;;10.32;;
61531;SDS011;47397;48.194;11.632;2022-08-25T04:55:15;18.48;;;10.63;;
61531;SDS011;47397;48.194;11.632;2022-08-25T04:56:19;17.73;;;11.10;;
61531;SDS011;47397;48.194;11.632;2022-08-25T04:57:21;15.68;;;10.63;;
61531;SDS011;47397;48.194;11.632;2022-08-25T04:58:21;18.40;;;11.52;;
61531;SDS011;47397;48.194;11.632;2022-08-25T04:59:22;16.85;;;10.93;;
61531;SDS011;47397;48.194;11.632;2022-08-25T05:00:22;15.73;;;10.35;;
61531;SDS011;47397;48.194;11.632;2022-08-25T05:01:23;16.85;;;9.93;;
61531;SDS011;47397;48.194;11.632;2022-08-25T05:02:24;15.60;;;9.88;;
61531;SDS011;47397;48.194;11.632;2022-08-25T05:03:25;19.42;;;11.18;;
61531;SDS011;47397;48.194;11.632;2022-08-25T05:04:25;17.30;;;10.98;;
61531;SDS011;47397;48.194;11.632;2022-08-25T05:05:26;19.40;;;11.60;;
61531;SDS011;47397;48.194;11.632;2022-08-25T05:06:27;18.58;;;11.20;;
61531;SDS011;47397;48.194;11.632;2022-08-25T05:07:28;17.48;;;10.95;;
61531;SDS011;47397;48.194;11.632;2022-08-25T05:08:28;17.70;;;10.43;;
61531;SDS011;47397;48.194;11.632;2022-08-25T05:09:29;18.27;;;10.90;;
61531;SDS011;47397;48.194;11.632;2022-08-25T05:10:31;17.58;;;11.70;;
61531;SDS011;47397;48.194;11.632;2022-08-25T05:11:32;16.25;;;10.55;;
61531;SDS011;47397;48.194;11.632;2022-08-25T05:12:33;18.30;;;11.27;;
61531;SDS011;47397;48.194;11.632;2022-08-25T05:13:33;18.88;;;11.18;;
61531;SDS011;47397;48.194;11.632;2022-08-25T05:14:34;18.80;;;12.27;;
61531;SDS011;47397;48.194;11.632;2022-08-25T05:15:35;17.48;;;12.48;;
61531;SDS011;47397;48.194;11.632;2022-08-25T05:16:36;18.33;;;11.45;;
61531;SDS011;47397;48.194;11.632;2022-08-25T05:17:37;18.33;;;12.10;;
61531;SDS011;47397;48.194;11.632;2022-08-25T05:18:37;18.20;;;11.52;;
61531;SDS011;47397;48.194;11.632;2022-08-25T05:19:38;18.95;;;11.82;;
61531;SDS011;47397;48.194;11.632;2022-08-25T05:20:38;18.95;;;11.45;;
61531;SDS011;47397;48.194;11.632;2022-08-25T05:21:39;17.23;;;11.45;;
61531;SDS011;47397;48.194;11.632;2022-08-25T05:22:42;22.05;;;12.68;;
61531;SDS011;47397;48.194;11.632;2022-08-25T05:23:44;16.55;;;11.38;;
61531;SDS011;47397;48.194;11.632;2022-08-25T05:24:44;18.73;;;11.60;;
61531;SDS011;47397;48.194;11.632;2022-08-25T05:25:46;18.10;;;11.10;;
61531;SDS011;47397;48.194;11.632;2022-08-25T05:26:47;16.65;;;10.90;;
61531;SDS011;47397;48.194;11.632;2022-08-25T05:27:48;16.38;;;10.93;;
61531;SDS011;47397;48.194;11.632;2022-08-25T05:28:48;15.02;;;10.20;;
61531;SDS011;47397;48.194;11.632;2022-08-25T05:29:50;17.45;;;11.23;;
61531;SDS011;47397;48.194;11.632;2022-08-25T05:30:56;17.77;;;11.00;;
61531;SDS011;47397;48.194;11.632;2022-08-25T05:31:57;16.60;;;10.75;;
61531;SDS011;47397;48.194;11.632;2022-08-25T05:32:57;17.95;;;11.43;;
61531;SDS011;47397;48.194;11.632;2022-08-25T05:33:58;19.17;;;11.52;;
61531;SDS011;47397;48.194;11.632;2022-08-25T05:34:59;17.67;;;11.32;;
61531;SDS011;47397;48.194;11.632;2022-08-25T05:35:59;15.80;;;10.57;;
61531;SDS011;47397;48.194;11.632;2022-08-25T05:37:00;19.10;;;11.10;;
61531;SDS011;47397;48.194;11.632;2022-08-25T05:38:00;18.40;;;11.60;;
61531;SDS011;47397;48.194;11.632;2022-08-25T05:39:01;16.95;;;11.18;;
61531;SDS011;47397;48.194;11.632;2022-08-25T05:40:03;16.75;;;10.85;;
61531;SDS011;47397;48.194;11.632;2022-08-25T05:41:06;19.60;;;10.90;;
61531;SDS011;47397;48.194;11.632;2022-08-25T05:42:08;16.83;;;11.30;;
61531;SDS011;47397;48.194;11.632;2022-08-25T05:43:08;19.13;;;12.48;;
61531;SDS011;47397;48.194;11.632;2022-08-25T05:44:09;19.75;;;12.15;;
61531;SDS011;47397;48.194;11.632;2022-08-25T05:45:10;18.50;;;12.20;;
61531;SDS011;47397;48.194;11.632;2022-08-25T05:46:11;17.77;;;11.70;;
61531;SDS011;47397;48.194;11.632;2022-08-25T05:47:12;17.23;;;11.80;;
61531;SDS011;47397;48.194;11.632;2022-08-25T05:48:12;18.10;;;11.73;;
61531;SDS011;47397;48.194;11.632;2022-08-25T05:49:13;19.83;;;12.23;;
61531;SDS011;47397;48.194;11.632;2022-08-25T05:50:13;16.85;;;10.93;;
61531;SDS011;47397;48.194;11.632;2022-08-25T05:51:14;20.15;;;12.00;;
61531;SDS011;47397;48.194;11.632;2022-08-25T05:52:14;21.70;;;11.68;;
61531;SDS011;47397;48.194;11.632;2022-08-25T05:53:15;15.65;;;10.90;;
61531;SDS011;47397;48.194;11.632;2022-08-25T05:54:15;15.60;;;10.90;;
61531;SDS011;47397;48.194;11.632;2022-08-25T05:55:16;20.08;;;12.43;;
61531;SDS011;47397;48.194;11.632;2022-08-25T05:56:18;17.98;;;12.38;;
61531;SDS011;47397;48.194;11.632;2022-08-25T05:57:18;22.83;;;13.80;;